Time;durP1;ratioP1;P1;durP2;ratioP2;P2;SDS_P1;SDS_P2;PMS_P1;PMS_P2;Temp;Humidity;BMP_temperature;BMP_pressure;BME280_temperature;BME280_humidity;BME280_pressure;Samples;Min_cycle;Max_cycle;Signal;HPM_P1;HPM_P2
2022/10/17 00:00:47;;;;;;;2.15;1.40;;;20.60;63.60;;;;;;5111004;27;43954;-62
2022/10/17 00:03:15;;;;;;;1.60;1.30;;;20.60;63.60;;;;;;5110820;27;43478;-62
2022/10/17 00:05:46;;;;;;;1.25;1.15;;;20.60;63.60;;;;;;5108966;27;43501;-62
2022/10/17 00:08:15;;;;;;;1.58;1.08;;;20.60;63.60;;;;;;5108479;27;44936;-62
2022/10/17 00:10:43;;;;;;;1.92;1.20;;;20.60;63.60;;;;;;5108427;27;43459;-61
2022/10/17 00:13:11;;;;;;;1.25;1.15;;;20.60;63.50;;;;;;5111769;27;43423;-61
2022/10/17 00:15:43;;;;;;;1.50;1.08;;;20.60;63.60;;;;;;5108014;27;43629;-62
2022/10/17 00:18:11;;;;;;;2.00;1.55;;;20.60;63.60;;;;;;5108445;27;44075;-62
2022/10/17 00:20:38;;;;;;;1.30;1.20;;;20.60;63.60;;;;;;5107734;27;43962;-62
2022/10/17 00:23:05;;;;;;;1.70;1.20;;;20.50;63.60;;;;;;5113152;27;43447;-61
2022/10/17 00:25:33;;;;;;;2.17;1.20;;;20.60;63.60;;;;;;5117376;27;43450;-62
2022/10/17 00:28:00;;;;;;;1.88;0.98;;;20.50;63.50;;;;;;5108503;27;44020;-62
2022/10/17 00:30:28;;;;;;;2.08;1.30;;;20.50;63.50;;;;;;5099494;27;43905;-62
2022/10/17 00:32:55;;;;;;;2.13;1.30;;;20.50;63.50;;;;;;5108719;27;43471;-61
2022/10/17 00:35:23;;;;;;;1.10;1.00;;;20.50;63.50;;;;;;5108041;27;43623;-61
2022/10/17 00:37:50;;;;;;;1.40;1.10;;;20.50;63.50;;;;;;5107293;27;45010;-61
2022/10/17 00:40:18;;;;;;;1.73;1.10;;;20.50;63.60;;;;;;5089596;27;43827;-62
2022/10/17 00:42:46;;;;;;;1.40;1.10;;;20.50;63.60;;;;;;5101148;27;43443;-61
2022/10/17 00:45:29;;;;;;;1.70;1.00;;;20.50;63.50;;;;;;5112184;27;43624;-62
2022/10/17 00:48:04;;;;;;;1.63;1.23;;;20.50;63.60;;;;;;5114284;27;45160;-62
2022/10/17 00:50:32;;;;;;;1.10;0.95;;;20.50;63.60;;;;;;5110437;27;43471;-61
2022/10/17 00:53:03;;;;;;;2.22;1.40;;;20.50;63.70;;;;;;5108630;27;43525;-61
2022/10/17 00:55:35;;;;;;;1.25;1.08;;;20.50;63.60;;;;;;5107557;27;43513;-61
2022/10/17 00:58:05;;;;;;;1.27;1.20;;;20.50;63.60;;;;;;5109771;27;44051;-62
2022/10/17 01:00:35;;;;;;;1.17;1.08;;;20.50;63.60;;;;;;5089525;27;43669;-62
2022/10/17 01:03:04;;;;;;;1.92;1.30;;;20.40;63.50;;;;;;5092174;27;43462;-62
2022/10/17 01:05:32;;;;;;;1.33;1.13;;;20.40;63.50;;;;;;5110637;27;43440;-62
2022/10/17 01:07:59;;;;;;;1.85;1.40;;;20.40;63.50;;;;;;5089853;27;45108;-62
2022/10/17 01:10:33;;;;;;;1.65;1.10;;;20.40;63.60;;;;;;5110363;27;43442;-62
2022/10/17 01:13:27;;;;;;;1.25;1.15;;;20.40;63.50;;;;;;5107239;27;43417;-62
2022/10/17 01:16:20;;;;;;;1.48;1.00;;;20.40;63.50;;;;;;5108987;27;43401;-62
2022/10/17 01:18:53;;;;;;;1.80;1.15;;;20.40;63.60;;;;;;5105240;27;44187;-62
2022/10/17 01:21:28;;;;;;;1.80;1.40;;;20.30;63.50;;;;;;5107151;27;43796;-62
2022/10/17 01:24:05;;;;;;;1.30;1.17;;;20.40;63.60;;;;;;5119087;27;43435;-61
2022/10/17 01:26:44;;;;;;;1.15;1.13;;;20.40;63.50;;;;;;5101138;27;43498;-62
2022/10/17 01:29:14;;;;;;;1.27;1.17;;;20.40;63.50;;;;;;5095817;27;43832;-62
2022/10/17 01:31:58;;;;;;;1.27;1.00;;;20.40;63.50;;;;;;5090586;27;43972;-62
2022/10/17 01:34:29;;;;;;;1.15;1.05;;;20.40;63.50;;;;;;5115878;27;43441;-61
2022/10/17 01:37:20;;;;;;;2.13;1.27;;;20.30;63.50;;;;;;5094039;27;43451;-62
2022/10/17 01:39:52;;;;;;;1.38;1.10;;;20.40;63.50;;;;;;5092004;27;44056;-62
2022/10/17 01:42:37;;;;;;;2.80;1.20;;;20.30;63.30;;;;;;5099820;27;43721;-61
2022/10/17 01:45:30;;;;;;;2.28;1.52;;;20.30;63.30;;;;;;5115196;27;43404;-61
2022/10/17 01:48:06;;;;;;;1.40;1.23;;;20.30;63.30;;;;;;5105091;27;44179;-61
2022/10/17 01:50:40;;;;;;;2.28;1.45;;;20.30;63.50;;;;;;5102403;27;44062;-62
2022/10/17 01:53:32;;;;;;;1.77;1.15;;;20.30;63.50;;;;;;5084371;27;43966;-61
2022/10/17 01:56:02;;;;;;;1.27;0.90;;;20.30;63.50;;;;;;5084668;27;43461;-61
2022/10/17 01:58:42;;;;;;;1.20;1.10;;;20.30;63.50;;;;;;5082282;27;43501;-61
2022/10/17 02:01:11;;;;;;;;;;;20.20;63.50;;;;;;5100393;27;45104;-61
2022/10/17 02:03:41;;;;;;;1.48;1.20;;;20.20;63.40;;;;;;5080684;27;43473;-61
2022/10/17 02:06:09;;;;;;;1.40;1.30;;;20.20;63.50;;;;;;5103212;27;43569;-61
2022/10/17 02:08:48;;;;;;;1.20;1.05;;;20.20;63.60;;;;;;5083805;27;44065;-61
2022/10/17 02:11:20;;;;;;;1.20;1.10;;;20.20;63.50;;;;;;5083550;27;44710;-61
2022/10/17 02:14:12;;;;;;;1.50;1.00;;;20.20;63.50;;;;;;5080201;27;43517;-61
2022/10/17 02:17:01;;;;;;;1.23;1.13;;;20.20;63.50;;;;;;5083507;27;43374;-62
2022/10/17 02:19:59;;;;;;;1.95;1.10;;;20.20;63.50;;;;;;5083443;27;43483;-62
2022/10/17 02:22:42;;;;;;;1.13;0.98;;;20.20;63.50;;;;;;5083521;27;45211;-62
2022/10/17 02:25:13;;;;;;;1.20;1.10;;;20.20;63.50;;;;;;5099251;27;43452;-61
2022/10/17 02:27:47;;;;;;;;;;;20.20;63.60;;;;;;5084575;27;43344;-61
2022/10/17 02:30:22;;;;;;;1.63;1.35;;;20.10;63.50;;;;;;5082437;27;43513;-61
2022/10/17 02:33:06;;;;;;;2.80;1.30;;;20.10;63.60;;;;;;5087778;27;44054;-61
2022/10/17 02:35:38;;;;;;;1.85;1.30;;;20.10;63.50;;;;;;5101580;27;43630;-62
2022/10/17 02:38:09;;;;;;;1.65;1.20;;;20.10;63.50;;;;;;5106581;27;43376;-62
2022/10/17 02:40:39;;;;;;;2.03;1.30;;;20.10;63.40;;;;;;5084503;27;43546;-62
2022/10/17 02:43:08;;;;;;;1.63;1.33;;;20.10;63.50;;;;;;5101040;27;43628;-62
2022/10/17 02:45:38;;;;;;;1.73;1.00;;;20.10;63.50;;;;;;5086095;27;43359;-61
2022/10/17 02:48:51;;;;;;;1.20;0.90;;;20.10;63.50;;;;;;5086978;27;43379;-62
2022/10/17 02:51:34;;;;;;;1.27;1.17;;;20.10;63.50;;;;;;5015126;28;43539;-62
2022/10/17 02:54:22;;;;;;;1.38;1.27;;;20.10;63.60;;;;;;5022377;28;43914;-61
2022/10/17 02:56:54;;;;;;;1.27;1.17;;;20.10;63.60;;;;;;5067001;27;43523;-62
2022/10/17 02:59:24;;;;;;;1.27;1.10;;;20.10;63.60;;;;;;5086988;27;43423;-61
2022/10/17 03:01:51;;;;;;;1.30;1.13;;;20.10;63.60;;;;;;5101519;27;43592;-61
2022/10/17 03:04:19;;;;;;;2.13;1.92;;;20.10;63.60;;;;;;5082881;27;43799;-62
2022/10/17 03:06:48;;;;;;;1.75;1.38;;;20.10;63.40;;;;;;5105181;27;43502;-62
2022/10/17 03:09:17;;;;;;;1.30;1.20;;;20.10;63.50;;;;;;5087180;27;43471;-61
2022/10/17 03:11:44;;;;;;;1.58;1.48;;;20.10;63.50;;;;;;5086655;27;43440;-61
2022/10/17 03:14:12;;;;;;;1.23;1.02;;;20.10;63.50;;;;;;5101370;27;44039;-61
2022/10/17 03:16:40;;;;;;;1.63;1.20;;;20.10;63.50;;;;;;5083237;27;43684;-61
2022/10/17 03:19:07;;;;;;;0.98;0.90;;;20.10;63.50;;;;;;5105043;27;43372;-61
2022/10/17 03:21:36;;;;;;;1.10;1.02;;;20.10;63.50;;;;;;5086448;27;43479;-61
2022/10/17 03:24:06;;;;;;;1.83;1.20;;;20.10;63.50;;;;;;5086333;27;43758;-61
2022/10/17 03:26:33;;;;;;;1.10;1.00;;;20.10;63.50;;;;;;5104327;27;43368;-61
2022/10/17 03:29:02;;;;;;;1.65;1.20;;;20.00;63.40;;;;;;5087178;27;43393;-61
2022/10/17 03:31:31;;;;;;;1.15;1.05;;;20.00;63.50;;;;;;5086222;27;43486;-61
2022/10/17 03:34:01;;;;;;;2.05;1.10;;;20.00;63.40;;;;;;5086118;27;44911;-61
2022/10/17 03:36:28;;;;;;;2.17;1.20;;;20.00;63.50;;;;;;5085869;27;44165;-61
2022/10/17 03:38:56;;;;;;;1.80;1.30;;;20.00;63.50;;;;;;5086562;27;43508;-62
2022/10/17 03:41:23;;;;;;;1.92;1.27;;;20.00;63.50;;;;;;5104668;27;43611;-61
2022/10/17 03:43:53;;;;;;;1.40;1.20;;;20.00;63.50;;;;;;5085603;27;43900;-61
2022/10/17 03:46:21;;;;;;;1.95;1.15;;;20.00;63.60;;;;;;5085689;27;43930;-61
2022/10/17 03:48:49;;;;;;;1.67;1.48;;;20.00;63.50;;;;;;5085852;27;43446;-62
2022/10/17 03:51:17;;;;;;;1.70;1.25;;;20.00;63.50;;;;;;5086227;27;43607;-61
2022/10/17 03:53:49;;;;;;;1.40;1.30;;;20.00;63.50;;;;;;5085725;27;43891;-61
2022/10/17 03:56:19;;;;;;;2.30;1.25;;;20.00;63.60;;;;;;5085885;27;43789;-61
2022/10/17 03:58:55;;;;;;;1.58;1.20;;;20.00;63.60;;;;;;5086570;27;43993;-62
2022/10/17 04:01:23;;;;;;;1.60;1.05;;;20.00;63.50;;;;;;5081860;27;43536;-61
2022/10/17 04:03:52;;;;;;;1.10;1.00;;;20.00;63.60;;;;;;5065481;27;44975;-62
2022/10/17 04:06:21;;;;;;;2.17;1.40;;;20.00;63.60;;;;;;5086055;27;43376;-62
2022/10/17 04:08:49;;;;;;;1.40;1.30;;;20.00;63.50;;;;;;5104200;27;43415;-62
2022/10/17 04:11:22;;;;;;;1.23;1.00;;;20.00;63.60;;;;;;5085639;27;43586;-62
2022/10/17 04:13:56;;;;;;;0.77;0.77;;;20.00;63.60;;;;;;5085393;27;43791;-62
2022/10/17 04:16:26;;;;;;;1.00;1.00;;;20.00;63.60;;;;;;5081467;27;43992;-62
2022/10/17 04:18:59;;;;;;;0.85;0.85;;;20.00;63.60;;;;;;5086150;27;43507;-62
2022/10/17 04:21:30;;;;;;;1.75;1.23;;;20.00;63.60;;;;;;5085041;27;43554;-62
2022/10/17 04:24:03;;;;;;;1.95;1.15;;;20.00;63.60;;;;;;5081988;27;44072;-62
2022/10/17 04:26:57;;;;;;;1.60;1.17;;;20.00;63.60;;;;;;5097170;27;44122;-61
2022/10/17 04:29:28;;;;;;;1.33;1.10;;;20.00;63.60;;;;;;5072964;27;43515;-62
2022/10/17 04:32:04;;;;;;;2.20;1.20;;;20.00;63.60;;;;;;5085986;27;43417;-61
2022/10/17 04:34:41;;;;;;;0.82;0.82;;;19.90;63.60;;;;;;5085394;27;45019;-62
2022/10/17 04:37:09;;;;;;;1.20;1.10;;;19.90;63.60;;;;;;5085092;27;43503;-62
2022/10/17 04:39:37;;;;;;;1.48;0.90;;;19.90;63.60;;;;;;5085203;27;43547;-62
2022/10/17 04:42:04;;;;;;;0.93;0.93;;;19.90;63.60;;;;;;5104352;27;43437;-62
2022/10/17 04:44:32;;;;;;;2.05;1.20;;;19.90;63.60;;;;;;5084045;27;43894;-62
2022/10/17 04:47:01;;;;;;;1.45;1.08;;;19.90;63.60;;;;;;5084302;27;43709;-61
2022/10/17 04:49:28;;;;;;;1.10;1.00;;;19.90;64.30;;;;;;5084012;27;43437;-62
2022/10/17 04:52:04;;;;;;;1.58;1.08;;;19.90;63.60;;;;;;5084794;27;43489;-61
2022/10/17 04:54:38;;;;;;;1.08;1.00;;;19.90;63.60;;;;;;5084510;27;45046;-62
2022/10/17 04:57:08;;;;;;;2.03;1.13;;;19.90;63.60;;;;;;5085000;27;43759;-62
2022/10/17 04:59:38;;;;;;;1.25;0.95;;;19.90;63.60;;;;;;5100034;27;44165;-62
2022/10/17 05:02:22;;;;;;;1.02;1.02;;;19.90;63.60;;;;;;5081275;27;43588;-61
2022/10/17 05:04:51;;;;;;;0.98;0.98;;;19.90;64.30;;;;;;5071061;27;45129;-61
2022/10/17 05:07:19;;;;;;;1.45;1.08;;;19.90;63.70;;;;;;5081927;27;43409;-61
2022/10/17 05:10:07;;;;;;;0.98;0.98;;;19.90;63.60;;;;;;5103276;27;43441;-61
2022/10/17 05:12:35;;;;;;;1.38;1.23;;;19.90;63.70;;;;;;5082735;27;44113;-61
2022/10/17 05:15:05;;;;;;;1.05;1.05;;;19.90;63.70;;;;;;5084795;27;44873;-61
2022/10/17 05:17:33;;;;;;;2.10;1.02;;;19.90;63.70;;;;;;5102405;27;43468;-61
2022/10/17 05:20:00;;;;;;;0.80;0.80;;;19.90;63.70;;;;;;5065407;27;43575;-61
2022/10/17 05:22:30;;;;;;;1.67;1.20;;;19.90;63.70;;;;;;5084106;27;43772;-61
2022/10/17 05:24:58;;;;;;;1.20;1.10;;;19.90;63.70;;;;;;5083778;27;43908;-62
2022/10/17 05:27:26;;;;;;;0.90;0.77;;;19.90;63.80;;;;;;5103235;27;43872;-61
2022/10/17 05:29:53;;;;;;;0.80;0.80;;;19.90;63.70;;;;;;5100355;27;43402;-62
2022/10/17 05:32:27;;;;;;;1.30;1.20;;;19.90;63.70;;;;;;5068432;27;43511;-62
2022/10/17 05:34:55;;;;;;;1.88;1.08;;;19.90;63.70;;;;;;5084618;27;44945;-62
2022/10/17 05:37:24;;;;;;;1.02;1.02;;;19.90;63.70;;;;;;5102948;27;45424;-61
2022/10/17 05:39:54;;;;;;;0.87;0.87;;;19.90;63.70;;;;;;5083897;27;43493;-62
2022/10/17 05:42:23;;;;;;;1.30;1.20;;;19.90;63.60;;;;;;5083658;27;43523;-62
2022/10/17 05:44:51;;;;;;;1.20;1.20;;;19.90;63.60;;;;;;5066851;27;44332;-62
2022/10/17 05:47:19;;;;;;;1.13;1.00;;;19.90;63.60;;;;;;5083281;27;43400;-62
2022/10/17 05:49:46;;;;;;;1.20;1.10;;;19.90;63.70;;;;;;5100219;27;43432;-62
2022/10/17 05:52:21;;;;;;;0.80;0.80;;;19.90;63.70;;;;;;5095103;27;43548;-62
2022/10/17 05:55:12;;;;;;;1.10;1.00;;;19.90;63.60;;;;;;5101289;27;45016;-62
2022/10/17 05:57:39;;;;;;;1.05;1.00;;;19.90;63.70;;;;;;5100761;27;44141;-62
2022/10/17 06:00:13;;;;;;;0.95;0.95;;;19.90;63.70;;;;;;5098271;27;43416;-62
2022/10/17 06:02:40;;;;;;;1.00;1.00;;;19.90;63.80;;;;;;5112931;27;43427;-62
2022/10/17 06:05:10;;;;;;;1.52;1.13;;;19.90;63.80;;;;;;5101946;27;43816;-61
2022/10/17 06:07:38;;;;;;;1.00;0.80;;;19.90;63.90;;;;;;5102524;27;43334;-61
2022/10/17 06:10:07;;;;;;;1.40;0.82;;;19.90;63.80;;;;;;5093633;27;43484;-61
2022/10/17 06:12:35;;;;;;;0.93;0.85;;;19.90;63.90;;;;;;5097341;27;43517;-61
2022/10/17 06:15:03;;;;;;;0.90;0.90;;;19.90;64.00;;;;;;5103559;27;44039;-61
2022/10/17 06:17:31;;;;;;;1.25;1.15;;;19.90;64.00;;;;;;5103438;27;43989;-61
2022/10/17 06:19:58;;;;;;;1.20;1.00;;;19.90;64.00;;;;;;5092874;27;43448;-61
2022/10/17 06:22:26;;;;;;;1.20;1.10;;;19.90;64.00;;;;;;5118022;27;43593;-61
2022/10/17 06:24:55;;;;;;;1.00;1.00;;;19.90;64.10;;;;;;5104521;27;43807;-61
2022/10/17 06:27:23;;;;;;;1.00;1.00;;;19.90;64.10;;;;;;5120749;27;43937;-61
2022/10/17 06:29:50;;;;;;;1.58;1.27;;;19.90;64.10;;;;;;5092195;27;43440;-61
2022/10/17 06:32:18;;;;;;;1.13;1.00;;;19.90;64.00;;;;;;5101944;27;43467;-61
2022/10/17 06:34:46;;;;;;;1.23;1.02;;;19.90;64.00;;;;;;5104206;27;44936;-61
2022/10/17 06:37:14;;;;;;;1.05;0.95;;;19.90;64.00;;;;;;5103476;27;43715;-61
2022/10/17 06:39:43;;;;;;;1.30;1.10;;;19.90;64.00;;;;;;5094664;27;43412;-61
2022/10/17 06:42:12;;;;;;;1.13;1.00;;;19.90;64.00;;;;;;5096033;27;43621;-61
2022/10/17 06:44:46;;;;;;;2.45;1.10;;;19.90;64.00;;;;;;5099731;27;43904;-61
2022/10/17 06:47:30;;;;;;;0.93;0.93;;;19.90;64.10;;;;;;5090995;27;43971;-61
2022/10/17 06:50:03;;;;;;;1.30;1.20;;;19.90;64.10;;;;;;5078686;27;43483;-61
2022/10/17 06:52:37;;;;;;;2.13;0.98;;;19.90;64.10;;;;;;5098506;27;43541;-61
2022/10/17 06:55:23;;;;;;;1.27;1.17;;;19.90;64.10;;;;;;5098028;27;43823;-61
2022/10/17 06:58:14;;;;;;;1.65;0.95;;;19.90;64.00;;;;;;5079779;27;43546;-61
2022/10/17 07:01:10;;;;;;;1.25;1.10;;;19.80;64.10;;;;;;5078325;27;43368;-61
2022/10/17 07:03:40;;;;;;;1.05;1.00;;;19.90;64.30;;;;;;5100198;27;43473;-61
2022/10/17 07:06:09;;;;;;;1.05;0.95;;;19.80;64.10;;;;;;5100074;27;43794;-61
2022/10/17 07:08:43;;;;;;;0.90;0.90;;;19.80;64.10;;;;;;5088681;27;43625;-61
2022/10/17 07:11:18;;;;;;;1.55;1.10;;;19.80;64.10;;;;;;5099112;27;43450;-61
2022/10/17 07:13:48;;;;;;;1.00;1.00;;;19.80;64.10;;;;;;5097627;27;43453;-61
2022/10/17 07:16:16;;;;;;;0.98;0.98;;;19.80;64.00;;;;;;5101329;27;44807;-61
2022/10/17 07:18:51;;;;;;;1.13;1.02;;;19.80;64.00;;;;;;5088270;27;43415;-61
2022/10/17 07:21:19;;;;;;;1.13;1.10;;;19.80;64.10;;;;;;5097131;27;43467;-61
2022/10/17 07:23:46;;;;;;;1.20;0.80;;;19.80;64.10;;;;;;5101307;27;43479;-61
2022/10/17 07:26:16;;;;;;;1.73;1.00;;;19.80;64.20;;;;;;5087435;27;44090;-61
2022/10/17 07:28:46;;;;;;;1.10;1.00;;;19.80;64.10;;;;;;5089713;27;43482;-61
2022/10/17 07:31:27;;;;;;;1.73;1.10;;;19.80;64.10;;;;;;5088609;27;43483;-60
2022/10/17 07:33:54;;;;;;;1.40;1.30;;;19.80;64.20;;;;;;5096519;27;43580;-60
2022/10/17 07:36:22;;;;;;;1.38;1.27;;;19.80;64.10;;;;;;5083183;27;43797;-61
2022/10/17 07:38:50;;;;;;;1.10;1.00;;;19.90;64.20;;;;;;5079010;27;43565;-60
2022/10/17 07:41:18;;;;;;;1.40;1.00;;;19.90;64.10;;;;;;5083839;27;43534;-61
2022/10/17 07:43:49;;;;;;;1.10;1.10;;;19.90;64.10;;;;;;5079821;27;44144;-61
2022/10/17 07:46:21;;;;;;;0.90;0.90;;;19.90;64.10;;;;;;5083676;27;43882;-61
2022/10/17 07:48:49;;;;;;;1.00;1.00;;;19.90;64.20;;;;;;5081013;27;43859;-61
2022/10/17 07:51:20;;;;;;;1.10;1.10;;;19.90;64.20;;;;;;5073722;27;43467;-60
2022/10/17 07:53:48;;;;;;;2.47;1.83;;;19.90;64.20;;;;;;5091525;27;43585;-60
2022/10/17 07:56:16;;;;;;;1.27;1.13;;;19.90;64.40;;;;;;5091881;27;45002;-61
2022/10/17 07:58:43;;;;;;;3.60;1.67;;;19.90;64.50;;;;;;5093299;27;43810;-59
2022/10/17 08:01:13;;;;;;;1.88;1.52;;;19.90;64.70;;;;;;5090767;27;43465;-60
2022/10/17 08:03:47;;;;;;;1.50;1.40;;;19.90;64.70;;;;;;5091687;27;43603;-60
2022/10/17 08:06:15;;;;;;;3.60;1.65;;;19.90;64.60;;;;;;5089980;27;43995;-60
2022/10/17 08:08:43;;;;;;;1.73;1.60;;;20.00;64.60;;;;;;5092407;27;43983;-60
2022/10/17 08:11:12;;;;;;;2.42;1.40;;;20.10;64.40;;;;;;5073528;27;43581;-60
2022/10/17 08:13:40;;;;;;;2.28;1.70;;;20.20;64.30;;;;;;5089294;27;44205;-60
2022/10/17 08:16:11;;;;;;;2.45;1.50;;;20.30;64.30;;;;;;5098627;27;44909;-60
2022/10/17 08:18:39;;;;;;;1.83;1.48;;;20.40;64.00;;;;;;5091505;27;43507;-60
2022/10/17 08:21:07;;;;;;;1.50;1.40;;;20.40;64.00;;;;;;5090371;27;43463;-60
2022/10/17 08:23:35;;;;;;;1.55;1.42;;;20.50;64.10;;;;;;5090212;27;43468;-61
2022/10/17 08:26:09;;;;;;;1.95;1.70;;;20.60;64.20;;;;;;5091591;27;43773;-60
2022/10/17 08:28:38;;;;;;;2.63;1.60;;;20.70;64.20;;;;;;5089982;27;43641;-60
2022/10/17 08:31:09;;;;;;;1.70;1.60;;;20.70;64.00;;;;;;5092208;27;44819;-60
2022/10/17 08:33:37;;;;;;;1.70;1.60;;;20.80;63.90;;;;;;5093230;27;43547;-60
2022/10/17 08:36:06;;;;;;;1.90;1.70;;;20.90;63.80;;;;;;5093162;27;43890;-60
2022/10/17 08:38:34;;;;;;;1.90;1.50;;;21.00;63.80;;;;;;5092041;27;43969;-60
2022/10/17 08:41:10;;;;;;;4.57;1.65;;;21.10;63.50;;;;;;5090925;27;43408;-59
2022/10/17 08:43:47;;;;;;;1.65;1.55;;;21.20;64.00;;;;;;5074796;27;43620;-61
2022/10/17 08:46:15;;;;;;;1.70;1.60;;;21.30;63.80;;;;;;5076982;27;43626;-61
2022/10/17 08:48:45;;;;;;;2.17;1.55;;;21.40;64.00;;;;;;5087621;27;43485;-61
2022/10/17 08:51:32;;;;;;;1.80;1.70;;;21.40;63.80;;;;;;5070252;27;43654;-61
2022/10/17 08:54:23;;;;;;;2.47;1.50;;;21.50;63.50;;;;;;5081770;27;43384;-61
2022/10/17 08:56:54;;;;;;;2.10;1.60;;;21.60;64.00;;;;;;5078145;27;43790;-60
2022/10/17 08:59:29;;;;;;;1.85;1.73;;;21.70;64.10;;;;;;5075712;27;43710;-62
2022/10/17 09:02:19;;;;;;;2.15;1.48;;;21.80;63.90;;;;;;5077359;27;43530;-61
2022/10/17 09:05:00;;;;;;;2.47;1.45;;;21.80;63.50;;;;;;5079344;27;43476;-62
2022/10/17 09:07:38;;;;;;;2.78;1.40;;;22.00;63.20;;;;;;5054232;27;44788;-59
2022/10/17 09:10:14;;;;;;;1.65;1.55;;;22.00;62.90;;;;;;5064689;27;43459;-60
2022/10/17 09:12:53;;;;;;;1.80;1.60;;;22.10;63.00;;;;;;5082434;27;43474;-60
2022/10/17 09:15:36;;;;;;;2.08;1.70;;;22.20;62.60;;;;;;5085761;27;43621;-59
2022/10/17 09:18:15;;;;;;;2.20;1.35;;;22.20;62.50;;;;;;5080889;27;45209;-59
2022/10/17 09:21:16;;;;;;;2.45;1.77;;;22.20;62.40;;;;;;5079957;27;43513;-59
2022/10/17 09:23:51;;;;;;;2.08;1.60;;;22.30;62.30;;;;;;5077195;27;43510;-59
2022/10/17 09:26:38;;;;;;;1.60;1.50;;;22.50;62.20;;;;;;5097668;27;43557;-59
2022/10/17 09:29:24;;;;;;;2.47;1.80;;;22.50;62.00;;;;;;5094894;27;44966;-60
2022/10/17 09:32:02;;;;;;;2.13;1.73;;;22.70;61.80;;;;;;5098588;27;43982;-59
2022/10/17 09:34:31;;;;;;;2.88;1.83;;;22.80;61.60;;;;;;5102593;27;43430;-60
2022/10/17 09:37:00;;;;;;;2.55;1.90;;;22.90;61.50;;;;;;5103187;27;44002;-60
2022/10/17 09:39:31;;;;;;;2.85;1.77;;;22.90;61.20;;;;;;5101245;27;44074;-59
2022/10/17 09:42:00;;;;;;;;;;;22.90;61.20;;;;;;5102789;27;43400;-57
2022/10/17 09:44:32;;;;;;;2.60;1.90;;;22.90;60.80;;;;;;5102534;27;43482;-59
2022/10/17 09:47:26;;;;;;;2.65;2.03;;;22.90;61.10;;;;;;5102160;27;44169;-60
2022/10/17 09:49:53;;;;;;;4.32;2.00;;;22.90;61.10;;;;;;5101923;27;43795;-59
2022/10/17 09:52:33;;;;;;;2.42;1.75;;;22.90;61.20;;;;;;5101566;27;43950;-59
2022/10/17 09:55:06;;;;;;;3.72;1.70;;;22.80;61.20;;;;;;5099298;27;43430;-60
2022/10/17 09:57:55;;;;;;;2.58;2.00;;;22.80;61.40;;;;;;5072206;27;43456;-60
2022/10/17 10:00:30;;;;;;;1.90;1.65;;;22.80;61.40;;;;;;5098387;27;43812;-59
2022/10/17 10:03:18;;;;;;;2.47;1.90;;;22.70;61.90;;;;;;5100275;27;44029;-59
2022/10/17 10:06:05;;;;;;;3.13;2.10;;;22.70;61.60;;;;;;5098601;27;43430;-59
2022/10/17 10:08:36;;;;;;;4.05;2.00;;;22.70;61.80;;;;;;5099107;27;43448;-60
2022/10/17 10:11:07;;;;;;;2.17;1.98;;;22.60;61.80;;;;;;5083066;27;44097;-60
2022/10/17 10:13:41;;;;;;;2.60;2.08;;;22.50;61.90;;;;;;5065780;27;43443;-60
2022/10/17 10:16:20;;;;;;;2.35;2.15;;;22.60;62.00;;;;;;5102241;27;43536;-59
2022/10/17 10:18:48;;;;;;;3.05;2.22;;;22.50;62.00;;;;;;5099922;27;43351;-59
2022/10/17 10:21:23;;;;;;;2.67;2.30;;;22.50;62.70;;;;;;5082699;27;44099;-60
2022/10/17 10:24:08;;;;;;;2.22;2.03;;;22.40;62.10;;;;;;5100140;27;44134;-60
2022/10/17 10:26:44;;;;;;;2.78;2.20;;;22.40;62.20;;;;;;5099057;27;43435;-59
2022/10/17 10:29:36;;;;;;;3.75;2.60;;;22.40;62.30;;;;;;5093970;27;43467;-59
2022/10/17 10:32:35;;;;;;;2.13;1.92;;;22.40;62.30;;;;;;5098978;27;45149;-59
2022/10/17 10:35:07;;;;;;;2.50;2.20;;;22.30;62.50;;;;;;5099578;27;43471;-59
2022/10/17 10:37:37;;;;;;;3.53;2.50;;;22.20;62.60;;;;;;5096382;27;43441;-58
2022/10/17 10:40:15;;;;;;;2.75;2.20;;;22.20;62.60;;;;;;5097792;27;43433;-59
2022/10/17 10:42:46;;;;;;;3.10;2.60;;;22.20;62.80;;;;;;5098809;27;44812;-59
2022/10/17 10:45:42;;;;;;;2.88;2.33;;;22.20;62.80;;;;;;5080284;27;43974;-59
2022/10/17 10:48:20;;;;;;;2.80;2.50;;;22.20;62.80;;;;;;5092241;27;43556;-60
2022/10/17 10:50:49;;;;;;;2.60;2.30;;;22.10;62.80;;;;;;5121628;27;43355;-59
2022/10/17 10:53:32;;;;;;;2.50;2.30;;;22.10;62.80;;;;;;5110690;27;44071;-59
2022/10/17 10:56:21;;;;;;;3.53;2.42;;;22.10;62.90;;;;;;5117014;27;43390;-59
2022/10/17 10:59:11;;;;;;;2.65;2.40;;;22.10;62.80;;;;;;5116245;27;43457;-59
2022/10/17 11:01:53;;;;;;;2.72;2.40;;;22.10;62.90;;;;;;5109427;27;43449;-59
2022/10/17 11:04:41;;;;;;;4.85;2.45;;;22.10;63.00;;;;;;5115032;27;44068;-59
2022/10/17 11:07:15;;;;;;;2.85;2.10;;;22.00;63.00;;;;;;5122164;27;43477;-59
2022/10/17 11:09:52;;;;;;;2.83;2.53;;;22.00;63.20;;;;;;5111955;27;43365;-59
2022/10/17 11:12:26;;;;;;;2.17;2.00;;;22.00;63.20;;;;;;5112158;27;43481;-59
2022/10/17 11:15:24;;;;;;;2.50;2.30;;;22.00;63.30;;;;;;5117369;27;43912;-59
2022/10/17 11:18:05;;;;;;;2.60;2.40;;;22.00;63.40;;;;;;5121110;27;43408;-59
2022/10/17 11:20:40;;;;;;;2.50;2.30;;;21.90;63.30;;;;;;5106386;27;43478;-59
2022/10/17 11:23:20;;;;;;;2.42;2.15;;;21.90;63.40;;;;;;5121639;27;43520;-59
2022/10/17 11:25:50;;;;;;;3.33;2.20;;;21.90;63.40;;;;;;5118817;27;44872;-59
2022/10/17 11:28:20;;;;;;;2.23;2.13;;;21.90;63.50;;;;;;5121799;27;43501;-59
2022/10/17 11:30:59;;;;;;;2.90;2.33;;;21.90;63.60;;;;;;5108200;27;43554;-59
2022/10/17 11:33:53;;;;;;;2.60;2.40;;;21.90;63.80;;;;;;5110841;27;43509;-59
2022/10/17 11:36:28;;;;;;;2.60;2.40;;;21.80;63.70;;;;;;5115597;27;44917;-59
2022/10/17 11:39:25;;;;;;;3.33;2.60;;;21.80;63.80;;;;;;5117072;27;43521;-59
2022/10/17 11:42:02;;;;;;;2.58;2.38;;;21.80;63.80;;;;;;5105557;27;43608;-59
2022/10/17 11:44:37;;;;;;;2.42;2.22;;;21.80;63.90;;;;;;5117668;27;43411;-59
2022/10/17 11:47:26;;;;;;;2.60;2.40;;;21.80;64.00;;;;;;5106996;27;44037;-58
2022/10/17 11:50:10;;;;;;;2.83;2.38;;;21.90;63.90;;;;;;5102673;27;43585;-59
2022/10/17 11:53:07;;;;;;;2.97;2.30;;;21.80;63.90;;;;;;5105360;27;43532;-59
2022/10/17 11:55:37;;;;;;;2.72;2.33;;;21.80;64.00;;;;;;5108588;27;43561;-59
2022/10/17 11:58:22;;;;;;;2.58;2.38;;;21.80;64.00;;;;;;5110951;27;45093;-59
2022/10/17 12:01:01;;;;;;;2.75;2.50;;;21.80;64.10;;;;;;5109072;27;43996;-59
2022/10/17 12:03:31;;;;;;;2.60;2.40;;;21.80;64.00;;;;;;5112803;27;43475;-59
2022/10/17 12:06:17;;;;;;;2.77;2.50;;;21.80;64.00;;;;;;5117681;27;43446;-59
2022/10/17 12:08:56;;;;;;;2.40;2.20;;;21.80;64.00;;;;;;5119647;27;43779;-59
2022/10/17 12:11:54;;;;;;;2.20;2.10;;;21.80;64.00;;;;;;5114967;27;43759;-59
2022/10/17 12:14:45;;;;;;;2.45;2.35;;;21.80;64.20;;;;;;5116821;27;43472;-59
2022/10/17 12:17:39;;;;;;;2.85;2.20;;;21.70;64.10;;;;;;5119260;27;43444;-59
2022/10/17 12:20:29;;;;;;;2.53;2.30;;;21.80;64.30;;;;;;5119150;27;43816;-59
2022/10/17 12:23:09;;;;;;;2.88;2.47;;;21.80;64.50;;;;;;5112962;27;43865;-59
2022/10/17 12:25:51;;;;;;;2.50;2.30;;;21.80;64.20;;;;;;5116778;27;43431;-59
2022/10/17 12:28:42;;;;;;;2.63;2.30;;;21.70;64.20;;;;;;5118456;27;43457;-59
2022/10/17 12:31:25;;;;;;;2.40;2.20;;;21.80;64.20;;;;;;5111502;27;43955;-59
2022/10/17 12:34:02;;;;;;;2.50;2.30;;;21.70;64.30;;;;;;5113829;27;43441;-59
2022/10/17 12:36:29;;;;;;;2.15;2.00;;;21.70;64.40;;;;;;5111084;27;43469;-59
2022/10/17 12:39:03;;;;;;;2.28;2.15;;;21.70;64.10;;;;;;5115744;27;43489;-59
2022/10/17 12:41:39;;;;;;;2.17;2.08;;;21.70;64.40;;;;;;5119151;27;44997;-59
2022/10/17 12:44:13;;;;;;;2.10;2.00;;;21.70;64.10;;;;;;5117044;27;43581;-59
2022/10/17 12:47:07;;;;;;;2.30;2.10;;;21.70;64.30;;;;;;5113245;27;43425;-59
2022/10/17 12:49:44;;;;;;;2.35;2.15;;;21.70;64.50;;;;;;5117069;27;43618;-59
2022/10/17 12:52:22;;;;;;;2.13;2.00;;;21.70;64.80;;;;;;5116659;27;43826;-59
2022/10/17 12:55:06;;;;;;;3.00;2.10;;;21.70;64.30;;;;;;5115608;27;43889;-59
2022/10/17 12:57:48;;;;;;;2.15;2.05;;;21.70;64.40;;;;;;5119029;27;43433;-59
2022/10/17 13:00:47;;;;;;;2.63;2.17;;;21.60;64.40;;;;;;5112861;27;43592;-59
2022/10/17 13:03:45;;;;;;;2.20;2.00;;;21.60;64.70;;;;;;5096232;27;44894;-59
2022/10/17 13:06:26;;;;;;;2.13;2.00;;;21.60;64.50;;;;;;5117137;27;43690;-59
2022/10/17 13:09:00;;;;;;;2.17;2.08;;;21.60;64.80;;;;;;5109889;27;43489;-59
2022/10/17 13:11:33;;;;;;;1.90;1.80;;;21.60;64.80;;;;;;5112957;27;43478;-59
2022/10/17 13:14:11;;;;;;;2.30;2.20;;;21.60;64.80;;;;;;5112794;27;44046;-59
2022/10/17 13:16:50;;;;;;;2.20;2.10;;;21.60;65.00;;;;;;5116151;27;43488;-59
2022/10/17 13:19:30;;;;;;;2.30;2.15;;;21.60;64.90;;;;;;5096634;27;43489;-59
2022/10/17 13:22:12;;;;;;;2.40;2.20;;;21.60;65.00;;;;;;5105307;27;43503;-58
2022/10/17 13:24:44;;;;;;;2.15;2.05;;;21.60;64.90;;;;;;5113552;27;44021;-59
2022/10/17 13:27:28;;;;;;;2.20;2.10;;;21.60;64.90;;;;;;5080591;27;44125;-59